Time;durP1;ratioP1;P1;durP2;ratioP2;P2;SDS_P1;SDS_P2;PMS_P1;PMS_P2;Temp;Humidity;BMP_temperature;BMP_pressure;BME280_temperature;BME280_humidity;BME280_pressure;Samples;Min_cycle;Max_cycle;Signal;HPM_P1;HPM_P2
2023/01/12 00:02:22;;;;;;;2.47;2.33;;;;;;;4.59;85.48;99953.56;5095399;28;20048;-65
2023/01/12 00:04:51;;;;;;;2.30;2.10;;;;;;;4.55;85.58;99956.81;5095727;28;20498;-65
2023/01/12 00:07:20;;;;;;;1.45;1.35;;;;;;;4.51;85.58;99955.03;5093625;28;20066;-65
2023/01/12 00:09:49;;;;;;;1.23;1.13;;;;;;;4.40;85.53;99961.44;5095178;28;20549;-65
2023/01/12 00:12:18;;;;;;;1.40;1.30;;;;;;;4.31;86.18;99969.63;5095532;28;20037;-65
2023/01/12 00:14:46;;;;;;;3.57;2.80;;;;;;;4.33;86.28;99967.13;5095491;28;20036;-66
2023/01/12 00:17:18;;;;;;;2.73;2.13;;;;;;;4.38;86.41;99968.13;5095108;28;20071;-66
2023/01/12 00:19:47;;;;;;;1.73;1.58;;;;;;;4.42;86.58;99964.88;5095428;28;20440;-66
2023/01/12 00:22:18;;;;;;;11.10;3.17;;;;;;;4.40;86.44;99967.38;5094855;28;20036;-66
2023/01/12 00:24:48;;;;;;;2.33;1.90;;;;;;;4.38;86.73;99968.13;5095024;28;20047;-66
2023/01/12 00:27:20;;;;;;;2.88;2.08;;;;;;;4.39;86.64;99977.44;5094945;28;20044;-66
2023/01/12 00:29:49;;;;;;;2.78;2.58;;;;;;;4.38;86.59;99985.81;5093748;28;20131;-66
2023/01/12 00:32:20;;;;;;;;;;;;;;;4.34;86.92;99986.56;5095196;28;20044;-65
2023/01/12 00:34:49;;;;;;;3.67;3.33;;;;;;;4.29;87.00;99983.03;5095116;28;20267;-66
2023/01/12 00:37:19;;;;;;;3.60;2.67;;;;;;;4.24;87.46;99984.56;5095034;28;20363;-66
2023/01/12 00:39:48;;;;;;;1.85;1.75;;;;;;;4.17;87.27;99982.69;5094671;28;20082;-66
2023/01/12 00:47:57;;;;;;;2.55;2.35;;;;;;;4.14;87.46;99947.22;5094849;28;20048;-65
2023/01/12 00:50:26;;;;;;;4.55;3.67;;;;;;;4.11;88.17;99937.88;5094520;28;20571;-66
2023/01/12 00:52:55;;;;;;;2.35;1.83;;;;;;;4.12;87.94;99943.78;5094383;28;20052;-66
2023/01/12 00:55:24;;;;;;;2.40;1.90;;;;;;;4.14;87.85;99952.28;5094108;28;20051;-67
2023/01/12 00:57:52;;;;;;;3.15;2.95;;;;;;;4.17;87.87;99952.38;5094678;28;20153;-66
2023/01/12 01:00:21;;;;;;;29.65;5.63;;;;;;;4.15;87.84;99959.88;5094603;28;20066;-66
2023/01/12 01:02:50;;;;;;;2.93;2.73;;;;;;;4.16;88.14;99955.69;5094393;28;20126;-65
2023/01/12 01:05:20;;;;;;;2.42;2.20;;;;;;;4.16;88.37;99958.22;5094821;28;20063;-66
2023/01/12 01:07:49;;;;;;;1.70;1.50;;;;;;;4.15;88.47;99954.00;5094251;28;20048;-66
2023/01/12 01:10:18;;;;;;;1.48;1.38;;;;;;;4.14;87.92;99962.38;5094504;28;20071;-66
2023/01/12 01:12:47;;;;;;;3.20;2.85;;;;;;;4.15;88.26;99954.81;5094324;28;20061;-66
2023/01/12 01:15:17;;;;;;;3.22;2.92;;;;;;;4.12;88.09;99953.91;5094059;28;20067;-66
2023/01/12 01:17:46;;;;;;;2.95;2.75;;;;;;;4.12;88.30;99964.00;5094333;28;20467;-66
2023/01/12 01:20:15;;;;;;;2.43;2.23;;;;;;;4.13;88.45;99963.19;5093678;28;20136;-66
2023/01/12 01:22:45;;;;;;;4.72;4.10;;;;;;;4.10;88.89;99956.41;5094098;28;20051;-66
2023/01/12 01:25:14;;;;;;;4.70;2.28;;;;;;;4.08;88.75;99952.94;5094015;28;20134;-66
2023/01/12 01:27:43;;;;;;;9.48;4.32;;;;;;;4.12;88.75;99964.00;5093930;28;20124;-66
2023/01/12 01:30:12;;;;;;;2.23;2.03;;;;;;;4.12;88.73;99966.53;5093845;28;20050;-66
2023/01/12 01:32:41;;;;;;;1.30;1.20;;;;;;;4.11;89.51;99977.44;5093859;28;20054;-65
2023/01/12 01:35:10;;;;;;;3.40;1.87;;;;;;;4.12;89.34;99971.56;5093826;28;20066;-65
2023/01/12 01:37:39;;;;;;;1.90;1.80;;;;;;;4.15;89.32;99979.25;5093714;28;20304;-66
2023/01/12 01:40:10;;;;;;;3.55;2.88;;;;;;;4.15;89.13;99969.16;5092541;28;20051;-65
2023/01/12 01:42:40;;;;;;;3.22;2.63;;;;;;;4.16;89.15;99975.91;5093628;28;20044;-66
2023/01/12 01:45:11;;;;;;;1.92;1.80;;;;;;;4.13;88.97;99981.72;5093640;28;20085;-65
2023/01/12 01:47:45;;;;;;;2.13;1.92;;;;;;;4.11;89.74;99977.44;5093769;28;20058;-65
2023/01/12 01:50:18;;;;;;;3.45;2.78;;;;;;;4.11;89.78;99972.38;5093966;28;20483;-66
2023/01/12 01:52:52;;;;;;;3.90;3.38;;;;;;;4.11;89.65;99972.38;5093694;28;20127;-65
2023/01/12 01:55:25;;;;;;;5.80;4.43;;;;;;;4.15;89.74;99974.19;5093391;28;20106;-66
2023/01/12 01:57:59;;;;;;;3.85;3.28;;;;;;;4.15;90.04;99981.78;5093866;28;20040;-66
2023/01/12 02:00:28;;;;;;;2.45;2.25;;;;;;;4.19;90.08;99981.03;5093576;28;20048;-65
2023/01/12 02:02:59;;;;;;;2.20;2.08;;;;;;;4.19;90.28;99981.03;5093389;28;20040;-66
2023/01/12 02:05:29;;;;;;;1.75;1.65;;;;;;;4.19;90.32;99981.03;5093439;28;20099;-66
2023/01/12 02:08:06;;;;;;;1.95;1.80;;;;;;;4.22;89.85;99986.19;5093477;28;20048;-66
2023/01/12 02:10:38;;;;;;;2.42;2.22;;;;;;;4.23;89.95;99991.28;5093783;28;20109;-65
2023/01/12 02:18:37;;;;;;;24.10;3.63;;;;;;;4.26;90.68;99983.81;5093433;28;20044;-66
2023/01/12 02:21:20;;;;;;;1.33;1.23;;;;;;;4.29;90.19;99983.03;5093413;28;20109;-66
2023/01/12 02:24:11;;;;;;;1.75;1.65;;;;;;;4.30;90.14;99980.53;5093591;28;20079;-66
2023/01/12 02:27:13;;;;;;;1.20;1.10;;;;;;;4.34;90.11;99986.56;5093356;28;20048;-66
2023/01/12 02:30:06;;;;;;;1.38;1.27;;;;;;;4.36;90.47;99995.03;5093895;28;20360;-65
2023/01/12 02:32:44;;;;;;;1.35;1.15;;;;;;;4.36;90.35;100002.59;5097667;28;20044;-66
2023/01/12 02:35:25;;;;;;;3.27;2.97;;;;;;;4.37;90.72;99999.25;5097171;28;20075;-66
2023/01/12 02:38:00;;;;;;;;;;;;;;;4.38;90.57;99998.44;5097855;28;20143;-66
2023/01/12 02:40:37;;;;;;;4.03;2.38;;;;;;;4.41;90.11;99998.53;5097432;28;19942;-66
2023/01/12 02:43:12;;;;;;;2.00;1.90;;;;;;;4.42;90.74;99997.72;5096959;28;20090;-66
2023/01/12 02:45:50;;;;;;;2.28;2.08;;;;;;;4.41;90.27;99988.44;5097236;28;20098;-66
2023/01/12 02:48:25;;;;;;;5.03;3.30;;;;;;;4.42;90.54;100001.09;5096942;28;20048;-66
2023/01/12 02:51:02;;;;;;;3.40;2.20;;;;;;;4.40;90.19;99997.69;5097220;28;20040;-66
2023/01/12 02:53:42;;;;;;;2.03;1.83;;;;;;;4.38;90.38;99998.44;5096805;28;20048;-66
2023/01/12 02:56:14;;;;;;;3.08;2.88;;;;;;;4.40;90.33;99996.81;5096574;28;20126;-66
2023/01/12 02:58:48;;;;;;;2.38;2.25;;;;;;;4.40;90.70;100000.22;5097597;28;20040;-66
2023/01/12 03:01:19;;;;;;;6.03;4.30;;;;;;;4.39;90.50;99995.13;5095476;28;20040;-66
2023/01/12 03:03:51;;;;;;;2.72;2.42;;;;;;;4.36;90.51;99989.97;5096539;28;20048;-66
2023/01/12 03:06:20;;;;;;;5.97;4.22;;;;;;;4.34;90.26;100001.72;5096945;28;20051;-66
2023/01/12 03:08:51;;;;;;;22.83;21.13;;;;;;;4.36;90.85;99995.03;5096461;28;20086;-65
2023/01/12 03:11:22;;;;;;;3.15;2.83;;;;;;;4.39;90.77;100000.19;5096494;28;20280;-66
2023/01/12 03:13:55;;;;;;;1.65;1.55;;;;;;;4.39;90.71;99995.94;5096725;28;20052;-66
2023/01/12 03:16:29;;;;;;;7.00;2.72;;;;;;;4.42;90.70;99997.72;5095462;28;20044;-66
2023/01/12 03:19:02;;;;;;;2.28;2.08;;;;;;;4.42;90.92;99995.19;5096349;28;20130;-66
2023/01/12 03:21:36;;;;;;;2.90;2.67;;;;;;;4.41;91.00;99996.03;5096349;28;20101;-66
2023/01/12 03:24:11;;;;;;;2.60;1.88;;;;;;;4.37;90.77;99994.19;5096128;28;20040;-65
2023/01/12 03:26:44;;;;;;;6.80;3.63;;;;;;;4.33;90.71;99989.88;5096113;28;20048;-66
2023/01/12 03:29:19;;;;;;;3.08;2.47;;;;;;;4.30;90.67;99989.78;5096132;28;20127;-66
2023/01/12 03:31:48;;;;;;;1.92;1.83;;;;;;;4.30;90.86;99992.31;5096130;28;20063;-67
2023/01/12 03:34:18;;;;;;;3.20;2.90;;;;;;;4.30;91.14;100000.75;5096324;28;20040;-66
2023/01/12 03:36:57;;;;;;;3.08;2.88;;;;;;;4.30;90.95;99995.69;5095931;28;20098;-66
2023/01/12 03:39:37;;;;;;;2.03;1.88;;;;;;;4.33;91.19;99999.97;5094788;28;20044;-65
2023/01/12 03:42:12;;;;;;;2.10;1.95;;;;;;;4.35;91.21;99994.16;5095725;28;20044;-66
2023/01/12 03:44:52;;;;;;;6.50;3.28;;;;;;;4.31;91.02;99988.97;5096129;28;20071;-66
2023/01/12 03:47:24;;;;;;;4.35;2.55;;;;;;;4.34;91.43;99996.66;5095813;28;20127;-66
2023/01/12 03:49:59;;;;;;;2.53;1.50;;;;;;;4.32;91.47;99995.75;5095849;28;20127;-65
2023/01/12 03:52:30;;;;;;;2.47;2.28;;;;;;;4.35;91.61;99998.34;5095966;28;20056;-65
2023/01/12 03:55:01;;;;;;;0.95;0.93;;;;;;;4.38;91.70;100004.38;5095442;28;20048;-66
2023/01/12 03:57:31;;;;;;;5.65;3.15;;;;;;;4.38;91.39;100003.50;5095872;28;20052;-65
2023/01/12 04:00:03;;;;;;;3.42;3.13;;;;;;;4.35;91.66;100003.41;5096051;28;20048;-65
2023/01/12 04:02:40;;;;;;;;;;;;;;;4.34;91.54;100007.63;5095921;28;20079;-65
2023/01/12 04:05:13;;;;;;;0.90;0.90;;;;;;;4.33;91.86;100022.72;5095901;28;19933;-66
2023/01/12 04:07:42;;;;;;;3.53;3.22;;;;;;;4.32;91.67;100028.59;5095273;28;20062;-66
2023/01/12 04:10:11;;;;;;;2.97;2.77;;;;;;;4.33;91.80;100036.22;5095596;28;20036;-66
2023/01/12 04:12:39;;;;;;;0.75;0.75;;;;;;;4.36;91.97;100035.44;5094084;28;20067;-65
2023/01/12 04:15:08;;;;;;;4.68;4.22;;;;;;;4.33;91.39;100025.25;5095176;28;20052;-65
2023/01/12 04:17:37;;;;;;;8.23;4.20;;;;;;;4.32;91.64;100019.31;5093955;28;20135;-66
2023/01/12 04:20:08;;;;;;;3.03;2.83;;;;;;;4.29;91.49;100024.31;5095184;28;20074;-65
2023/01/12 04:22:43;;;;;;;1.75;1.65;;;;;;;4.32;91.99;100019.31;5095397;28;20406;-66
2023/01/12 04:25:14;;;;;;;3.70;3.40;;;;;;;4.30;91.74;100010.00;5094968;28;20069;-66
2023/01/12 04:27:47;;;;;;;5.57;3.30;;;;;;;4.31;91.71;100022.69;5093825;28;20044;-66
2023/01/12 04:30:19;;;;;;;4.65;3.47;;;;;;;4.29;91.46;100020.94;5095456;28;20131;-66
2023/01/12 04:32:48;;;;;;;4.07;3.67;;;;;;;4.28;91.85;100014.16;5095152;28;20259;-66
2023/01/12 04:35:17;;;;;;;2.83;2.33;;;;;;;4.31;92.07;100014.25;5094870;28;20502;-66
2023/01/12 04:37:47;;;;;;;4.95;4.50;;;;;;;4.34;92.03;100009.28;5094786;28;20052;-66
2023/01/12 04:40:17;;;;;;;5.60;4.15;;;;;;;4.37;92.07;100006.81;5095068;28;20067;-65
2023/01/12 04:45:28;;;;;;;5.10;3.85;;;;;;;4.30;91.62;100018.44;5094589;28;20048;-65
2023/01/12 04:48:01;;;;;;;5.43;4.82;;;;;;;4.30;92.01;100025.16;5094840;28;20051;-65
2023/01/12 04:50:30;;;;;;;4.10;3.75;;;;;;;4.24;92.39;100017.41;5094924;28;20087;-65
2023/01/12 04:53:02;;;;;;;5.15;4.70;;;;;;;4.30;92.11;100010.00;5094451;28;20040;-65
2023/01/12 04:55:31;;;;;;;4.80;3.20;;;;;;;4.33;92.34;100008.41;5094773;28;20054;-66
2023/01/12 04:58:00;;;;;;;4.60;3.47;;;;;;;4.35;92.43;100003.41;5094427;28;20043;-65
2023/01/12 05:00:29;;;;;;;4.68;2.38;;;;;;;4.35;92.42;100000.88;5094263;28;20048;-66
2023/01/12 05:03:01;;;;;;;3.22;2.05;;;;;;;4.33;92.08;100005.91;5094660;28;20131;-65
2023/01/12 05:05:32;;;;;;;5.15;4.70;;;;;;;4.37;92.33;99996.72;5094252;28;20044;-65
2023/01/12 05:10:43;;;;;;;2.63;2.42;;;;;;;4.41;92.50;100008.66;5094476;28;20398;-65
2023/01/12 05:13:12;;;;;;;2.33;1.95;;;;;;;4.42;92.76;100010.34;5094193;28;20042;-65
2023/01/12 05:15:40;;;;;;;1.35;1.25;;;;;;;4.43;92.59;100004.50;5094059;28;20040;-65
2023/01/12 05:18:09;;;;;;;3.50;3.22;;;;;;;4.46;92.55;100012.16;5094046;28;20048;-65
2023/01/12 05:20:38;;;;;;;4.55;3.90;;;;;;;4.46;92.32;100022.28;5093947;28;20048;-66
2023/01/12 05:23:08;;;;;;;3.05;2.53;;;;;;;4.43;92.69;100017.13;5094243;28;20177;-65
2023/01/12 05:25:37;;;;;;;2.35;2.15;;;;;;;4.40;92.24;100022.09;5094189;28;20528;-65
2023/01/12 05:28:06;;;;;;;1.57;1.47;;;;;;;4.38;92.52;100022.06;5093892;28;20123;-66
2023/01/12 05:30:34;;;;;;;1.20;1.10;;;;;;;4.37;92.51;100027.03;5094309;28;20047;-65
2023/01/12 05:33:03;;;;;;;1.77;1.67;;;;;;;4.39;92.83;100035.53;5093795;28;20047;-65
2023/01/12 05:35:33;;;;;;;;;;;;;;;4.44;92.72;100028.97;5094236;28;20043;-66
2023/01/12 05:38:01;;;;;;;2.67;2.47;;;;;;;4.47;93.00;100031.56;5093833;28;19964;-65
2023/01/12 05:40:31;;;;;;;3.70;3.40;;;;;;;4.48;92.64;100033.28;5093980;28;20082;-66
2023/01/12 05:45:39;;;;;;;3.72;3.35;;;;;;;4.49;92.55;100040.03;5093929;28;20389;-66
2023/01/12 05:48:08;;;;;;;1.10;1.07;;;;;;;4.46;92.47;100032.38;5093636;28;20097;-65
2023/01/12 05:50:37;;;;;;;2.33;2.15;;;;;;;4.47;92.90;100041.66;5093565;28;20288;-65
2023/01/12 05:53:09;;;;;;;1.92;1.67;;;;;;;4.47;92.46;100039.13;5093620;28;20060;-65
2023/01/12 05:55:39;;;;;;;3.53;2.97;;;;;;;4.44;92.49;100039.06;5093549;28;20438;-65
2023/01/12 05:58:08;;;;;;;5.15;3.60;;;;;;;4.44;92.45;100028.97;5093794;28;20563;-65
2023/01/12 06:00:37;;;;;;;4.17;1.80;;;;;;;4.46;92.91;100029.84;5093526;28;20048;-65
2023/01/12 06:03:06;;;;;;;3.07;1.43;;;;;;;4.47;92.77;100018.91;5093833;28;20040;-65
2023/01/12 06:05:34;;;;;;;2.37;2.27;;;;;;;4.50;92.76;100030.00;5094136;28;20114;-65
2023/01/12 06:08:03;;;;;;;1.77;1.67;;;;;;;4.51;92.60;100030.84;5097607;28;20089;-65
2023/01/12 06:10:33;;;;;;;2.90;1.80;;;;;;;4.51;92.58;100038.44;5097722;28;20074;-65
2023/01/12 06:15:42;;;;;;;2.17;2.05;;;;;;;4.53;92.84;100040.19;5097749;28;20005;-65
2023/01/12 06:18:11;;;;;;;3.60;3.30;;;;;;;4.54;92.56;100046.06;5097380;28;20036;-65
2023/01/12 06:20:39;;;;;;;5.72;3.70;;;;;;;4.51;92.82;100051.06;5097676;28;20043;-65
2023/01/12 06:23:08;;;;;;;1.90;1.77;;;;;;;4.43;92.54;100057.56;5097288;28;20048;-65
2023/01/12 06:25:37;;;;;;;1.83;1.73;;;;;;;4.45;92.52;100051.75;5097541;28;20445;-65
2023/01/12 06:28:07;;;;;;;13.47;4.23;;;;;;;4.49;92.64;100055.19;5097582;28;20067;-65
2023/01/12 06:30:36;;;;;;;3.08;1.98;;;;;;;4.51;92.87;100061.19;5097228;28;20054;-65
2023/01/12 06:33:05;;;;;;;4.43;2.73;;;;;;;4.52;92.61;100068.78;5097115;28;20051;-65
2023/01/12 06:35:34;;;;;;;1.27;1.20;;;;;;;4.53;92.79;100077.22;5097446;28;20040;-65
2023/01/12 06:38:02;;;;;;;1.77;1.67;;;;;;;4.53;92.50;100080.63;5097304;28;20433;-65
2023/01/12 06:40:32;;;;;;;6.70;3.27;;;;;;;4.51;92.46;100077.16;5096989;28;20068;-65
2023/01/12 06:43:01;;;;;;;4.78;3.20;;;;;;;4.50;92.34;100079.66;5097091;28;20072;-65
2023/01/12 06:45:31;;;;;;;1.73;1.63;;;;;;;4.53;92.94;100069.66;5096792;28;20044;-65
2023/01/12 06:48:00;;;;;;;5.25;3.60;;;;;;;4.52;92.96;100083.09;5097189;28;20064;-65
2023/01/12 06:50:29;;;;;;;2.23;2.03;;;;;;;4.52;92.52;100083.09;5096816;28;20402;-65
2023/01/12 06:52:59;;;;;;;3.87;3.53;;;;;;;4.52;92.80;100083.09;5096751;28;20315;-65
2023/01/12 06:55:28;;;;;;;3.67;2.35;;;;;;;4.52;92.49;100088.16;5096659;28;20525;-65
2023/01/12 06:57:57;;;;;;;3.88;2.70;;;;;;;4.49;92.48;100088.03;5096959;28;20052;-65
2023/01/12 07:00:26;;;;;;;1.98;1.88;;;;;;;4.50;92.49;100089.78;5096646;28;20517;-65
2023/01/12 07:02:56;;;;;;;4.18;3.78;;;;;;;4.51;92.57;100084.75;5096888;28;20078;-65
2023/01/12 07:05:25;;;;;;;6.45;2.78;;;;;;;4.55;92.97;100083.19;5096386;28;20486;-65
2023/01/12 07:08:00;;;;;;;3.03;2.47;;;;;;;4.57;92.99;100081.56;5096359;28;20036;-66
2023/01/12 07:10:31;;;;;;;1.80;1.70;;;;;;;4.55;92.30;100086.59;5096742;28;20075;-65
2023/01/12 07:13:00;;;;;;;1.45;1.35;;;;;;;4.52;92.85;100103.31;5096419;28;20055;-65
2023/01/12 07:15:29;;;;;;;1.55;1.45;;;;;;;4.52;92.96;100105.84;5096247;28;20047;-65
2023/01/12 07:17:59;;;;;;;4.37;3.97;;;;;;;4.53;92.27;100105.03;5096054;28;20035;-65
2023/01/12 07:20:28;;;;;;;3.28;2.97;;;;;;;4.53;92.74;100110.09;5096188;28;20307;-65
2023/01/12 07:22:57;;;;;;;7.10;4.70;;;;;;;4.54;92.32;100112.66;5096201;28;20040;-65
2023/01/12 07:25:26;;;;;;;4.57;4.15;;;;;;;4.51;92.47;100109.19;5096307;28;20097;-65
2023/01/12 07:27:57;;;;;;;4.65;3.65;;;;;;;4.51;92.73;100106.66;5096161;28;20097;-65
2023/01/12 07:30:27;;;;;;;4.45;3.55;;;;;;;4.51;92.74;100104.13;5096495;28;20063;-65
2023/01/12 07:32:56;;;;;;;7.43;2.90;;;;;;;4.50;92.23;100112.53;5096075;28;20055;-65
2023/01/12 07:35:26;;;;;;;2.60;2.40;;;;;;;4.52;92.42;100108.38;5096256;28;20036;-65
2023/01/12 07:37:54;;;;;;;1.77;1.52;;;;;;;4.52;92.49;100100.78;5095865;28;20486;-65
2023/01/12 07:40:23;;;;;;;1.80;1.70;;;;;;;4.52;92.85;100108.38;5096167;28;20070;-65
2023/01/12 07:42:59;;;;;;;2.20;1.87;;;;;;;4.54;92.64;100111.78;5095725;28;20368;-65
2023/01/12 07:45:28;;;;;;;2.63;1.92;;;;;;;4.58;92.55;100116.16;5096038;28;20284;-65
2023/01/12 07:47:57;;;;;;;;;;;;;;;4.58;92.61;100119.50;5096159;28;20055;-65
2023/01/12 07:50:29;;;;;;;0.98;0.95;;;;;;;4.64;92.33;100114.66;5095912;28;19946;-65
2023/01/12 07:53:00;;;;;;;3.33;3.03;;;;;;;4.66;92.76;100127.31;5096006;28;20507;-65
2023/01/12 07:55:29;;;;;;;1.25;1.15;;;;;;;4.64;92.23;100128.94;5095270;28;20082;-65
2023/01/12 07:58:02;;;;;;;2.10;1.98;;;;;;;4.67;92.17;100119.81;5095539;28;20123;-65
2023/01/12 08:00:31;;;;;;;2.90;2.70;;;;;;;4.76;92.53;100116.69;5095981;28;20494;-65
2023/01/12 08:03:05;;;;;;;2.47;2.28;;;;;;;4.82;92.07;100118.53;5095613;28;20478;-64
2023/01/12 08:05:37;;;;;;;2.50;2.30;;;;;;;4.85;92.14;100119.47;5095306;28;20059;-65
2023/01/12 08:08:07;;;;;;;1.73;1.55;;;;;;;4.86;92.30;100121.19;5095624;28;20434;-64
2023/01/12 08:10:36;;;;;;;3.33;3.03;;;;;;;4.86;91.99;100121.19;5096736;28;20481;-64
2023/01/12 08:13:04;;;;;;;3.25;2.95;;;;;;;4.89;92.06;100121.28;5094408;28;20085;-64
2023/01/12 08:15:38;;;;;;;3.10;2.03;;;;;;;4.88;91.88;100109.44;5095380;28;20107;-64
2023/01/12 08:18:15;;;;;;;2.63;2.42;;;;;;;4.88;91.55;100114.50;5095379;28;20425;-64
2023/01/12 08:20:47;;;;;;;6.40;3.05;;;;;;;4.91;91.98;100109.53;5094405;28;20071;-64
2023/01/12 08:23:22;;;;;;;3.30;2.75;;;;;;;4.98;91.99;100111.44;5094856;28;20428;-64
2023/01/12 08:25:57;;;;;;;1.77;1.67;;;;;;;4.98;91.95;100115.63;5094612;28;20051;-64
2023/01/12 08:28:33;;;;;;;2.60;2.03;;;;;;;5.08;91.95;100117.59;5104088;28;20123;-64
2023/01/12 08:31:03;;;;;;;12.68;4.18;;;;;;;5.18;91.78;100120.41;5104091;28;20032;-64
2023/01/12 08:33:31;;;;;;;5.00;4.20;;;;;;;5.27;91.98;100120.69;5103937;28;20568;-63
2023/01/12 08:36:03;;;;;;;4.43;4.03;;;;;;;5.35;91.90;100118.38;5104014;28;20028;-64
2023/01/12 08:38:32;;;;;;;2.67;2.15;;;;;;;5.47;91.00;100118.66;5095668;28;20490;-64
2023/01/12 08:46:18;;;;;;;9.07;3.33;;;;;;;5.75;91.59;100122.78;5099087;28;20036;-64
2023/01/12 08:48:47;;;;;;;4.00;3.70;;;;;;;5.82;91.61;100124.66;5094530;28;20524;-64
2023/01/12 08:51:17;;;;;;;2.55;2.35;;;;;;;5.93;91.58;100125.81;5094421;28;20036;-65
2023/01/12 08:53:47;;;;;;;5.28;3.28;;;;;;;6.09;91.68;100120.31;5094403;28;20044;-64
2023/01/12 08:56:17;;;;;;;3.15;2.80;;;;;;;6.18;91.14;100123.06;5094466;28;20113;-65
2023/01/12 08:58:46;;;;;;;2.67;2.28;;;;;;;6.21;90.51;100128.22;5094271;28;20070;-64
2023/01/12 09:01:15;;;;;;;3.80;3.47;;;;;;;6.21;90.26;100133.28;5094350;28;20128;-64
2023/01/12 09:03:45;;;;;;;2.03;1.92;;;;;;;6.23;89.93;100131.63;5099598;28;20035;-64
2023/01/12 09:06:16;;;;;;;4.05;2.95;;;;;;;6.24;89.91;100123.19;5104662;28;20074;-64
2023/01/12 09:08:46;;;;;;;5.13;4.28;;;;;;;6.25;90.06;100127.44;5104252;28;20089;-64
2023/01/12 09:11:15;;;;;;;4.70;3.45;;;;;;;6.20;89.51;100126.47;5103229;28;20457;-65
2023/01/12 09:13:44;;;;;;;1.70;1.60;;;;;;;6.14;89.80;100123.81;5102152;28;20127;-64
2023/01/12 09:16:16;;;;;;;2.17;2.00;;;;;;;6.07;88.82;100125.31;5104990;28;20061;-64
2023/01/12 09:18:45;;;;;;;3.28;2.97;;;;;;;6.10;89.20;100129.59;5104216;28;20054;-64
2023/01/12 09:21:16;;;;;;;1.20;1.13;;;;;;;6.06;88.76;100132.91;5102646;28;20079;-64
2023/01/12 09:23:48;;;;;;;3.33;1.98;;;;;;;5.83;88.45;100127.22;5103581;28;20100;-64
2023/01/12 09:26:19;;;;;;;3.67;2.63;;;;;;;5.69;88.46;100127.69;5102896;28;20118;-63
2023/01/12 09:28:50;;;;;;;2.95;2.45;;;;;;;5.69;88.41;100120.06;5103100;28;20148;-64
2023/01/12 09:31:21;;;;;;;2.28;2.13;;;;;;;5.74;88.29;100108.41;5103203;28;20040;-63
2023/01/12 09:33:51;;;;;;;3.90;2.92;;;;;;;5.84;88.31;100111.25;5101613;28;20127;-64
2023/01/12 09:36:23;;;;;;;4.57;3.85;;;;;;;5.91;88.74;100102.13;5103641;28;20048;-64
2023/01/12 09:38:54;;;;;;;2.58;2.38;;;;;;;5.96;88.49;100110.69;5105001;28;20047;-64
2023/01/12 09:49:34;;;;;;;1.73;1.63;;;;;;;6.15;88.11;100101.84;5114668;28;20044;-64
2023/01/12 09:52:11;;;;;;;3.10;2.75;;;;;;;6.04;88.48;100094.00;5112982;28;20394;-63
2023/01/12 09:54:42;;;;;;;1.95;1.75;;;;;;;6.09;88.39;100093.28;5114216;28;20059;-63
2023/01/12 09:57:29;;;;;;;1.58;1.48;;;;;;;6.15;87.90;100097.63;5113789;28;20101;-64
2023/01/12 10:00:02;;;;;;;2.33;2.15;;;;;;;6.20;87.93;100106.22;5098737;28;20112;-63
2023/01/12 10:02:44;;;;;;;3.10;2.88;;;;;;;6.13;87.85;100106.88;5114156;28;20054;-63
2023/01/12 10:05:26;;;;;;;11.38;3.10;;;;;;;6.11;87.72;100111.06;5113741;28;20044;-63
2023/01/12 10:08:15;;;;;;;3.13;2.83;;;;;;;6.09;87.36;100107.63;5113612;28;20048;-63
2023/01/12 10:11:00;;;;;;;4.88;1.75;;;;;;;6.07;87.38;100109.25;5114145;28;20043;-64
2023/01/12 10:13:49;;;;;;;1.70;1.58;;;;;;;6.13;87.24;100114.47;5113951;28;20127;-63
2023/01/12 10:16:25;;;;;;;5.88;4.57;;;;;;;6.21;86.99;100113.00;5097023;28;20131;-64
2023/01/12 10:19:01;;;;;;;4.78;2.55;;;;;;;6.30;87.32;100105.59;5113739;28;20046;-63
2023/01/12 10:21:31;;;;;;;2.35;2.22;;;;;;;6.33;87.11;100098.06;5113913;28;20071;-64
2023/01/12 10:24:00;;;;;;;1.35;1.25;;;;;;;6.39;86.87;100103.28;5113919;28;20052;-64
2023/01/12 10:26:41;;;;;;;1.50;1.40;;;;;;;6.42;87.28;100095.75;5113839;28;20535;-63
2023/01/12 10:29:12;;;;;;;3.80;2.50;;;;;;;6.45;86.98;100095.81;5113955;28;20047;-64
2023/01/12 10:31:41;;;;;;;3.13;1.15;;;;;;;6.50;87.20;100099.28;5114111;28;20048;-64
2023/01/12 10:34:11;;;;;;;2.10;1.90;;;;;;;6.59;87.13;100096.97;5112556;28;20096;-64
2023/01/12 10:36:45;;;;;;;2.30;1.92;;;;;;;6.61;87.13;100095.31;5113583;28;20093;-63
2023/01/12 10:39:34;;;;;;;3.58;3.28;;;;;;;6.62;87.02;100102.09;5114074;28;20456;-63
2023/01/12 10:45:14;;;;;;;3.10;2.90;;;;;;;6.61;87.50;100105.47;5093157;28;20052;-63
2023/01/12 10:47:44;;;;;;;1.85;1.75;;;;;;;6.60;86.97;100106.28;5093237;28;20052;-64
2023/01/12 10:50:23;;;;;;;0.90;0.80;;;;;;;6.51;87.55;100098.47;5093135;28;20051;-63
2023/01/12 10:53:01;;;;;;;4.18;2.80;;;;;;;6.50;86.88;100090.84;5100049;28;20043;-64
2023/01/12 10:55:33;;;;;;;7.70;2.65;;;;;;;6.59;87.51;100102.03;5114363;28;20055;-64
2023/01/12 10:58:04;;;;;;;2.38;1.98;;;;;;;6.64;86.41;100100.47;5096631;28;20056;-63
2023/01/12 11:00:33;;;;;;;4.78;3.33;;;;;;;6.65;86.84;100097.09;5096951;28;20047;-64
2023/01/12 11:03:02;;;;;;;2.25;2.10;;;;;;;6.65;86.86;100094.56;5096680;28;20036;-63
2023/01/12 11:05:36;;;;;;;11.32;1.95;;;;;;;6.68;86.79;100096.31;5096418;28;20032;-63
2023/01/12 11:08:22;;;;;;;3.00;2.70;;;;;;;6.70;86.87;100079.44;5096719;28;20138;-63
2023/01/12 11:10:51;;;;;;;3.22;2.92;;;;;;;6.69;85.86;100068.41;5105496;28;20188;-63
2023/01/12 11:13:35;;;;;;;3.87;2.60;;;;;;;6.67;85.98;100065.00;5102465;28;20096;-63
2023/01/12 11:16:17;;;;;;;2.72;2.50;;;;;;;6.59;86.53;100063.16;5117178;28;20268;-63
2023/01/12 11:18:51;;;;;;;2.30;2.17;;;;;;;6.66;86.13;100050.63;5115162;28;20145;-65
2023/01/12 11:21:25;;;;;;;4.10;2.58;;;;;;;6.73;86.35;100060.06;5096455;28;20048;-63
2023/01/12 11:23:58;;;;;;;2.67;2.47;;;;;;;6.83;86.40;100045.91;5096470;28;20064;-63
2023/01/12 11:26:32;;;;;;;2.17;1.98;;;;;;;6.95;86.36;100046.13;5099161;28;20063;-64
2023/01/12 11:29:16;;;;;;;2.28;2.08;;;;;;;7.21;86.47;100044.09;5109743;28;20055;-63
2023/01/12 11:31:47;;;;;;;3.92;3.55;;;;;;;7.46;86.36;100036.09;5116582;28;20134;-64
2023/01/12 11:34:19;;;;;;;3.15;2.40;;;;;;;7.58;86.13;100028.69;5116425;28;20128;-63
2023/01/12 11:36:53;;;;;;;8.40;3.53;;;;;;;7.52;86.08;100020.94;5116364;28;20047;-64
2023/01/12 11:39:24;;;;;;;2.85;2.60;;;;;;;7.49;85.20;100018.34;5107041;28;20040;-64
2023/01/12 11:44:42;;;;;;;11.45;4.53;;;;;;;7.75;85.27;100024.72;5110559;28;20043;-64
2023/01/12 11:47:13;;;;;;;5.28;3.17;;;;;;;7.82;85.26;100016.34;5115985;28;20058;-64
2023/01/12 11:49:51;;;;;;;2.53;1.90;;;;;;;8.03;85.27;100016.69;5116077;28;20101;-64
2023/01/12 11:52:20;;;;;;;2.45;2.28;;;;;;;8.23;84.12;100011.03;5116060;28;20047;-63
2023/01/12 11:54:49;;;;;;;3.88;2.83;;;;;;;8.45;84.20;100015.59;5116038;28;20542;-64
2023/01/12 11:57:36;;;;;;;1.50;1.40;;;;;;;8.71;83.49;100009.13;5114578;28;20134;-64
2023/01/12 12:00:25;;;;;;;0.98;0.95;;;;;;;8.85;83.32;100015.28;5114976;28;20279;-64
2023/01/12 12:03:00;;;;;;;;;;;;;;;8.98;82.80;100014.56;5116227;28;20055;-64
2023/01/12 12:05:42;;;;;;;7.50;2.03;;;;;;;8.98;82.54;100009.47;5115839;28;19919;-64
2023/01/12 12:08:23;;;;;;;2.05;1.88;;;;;;;8.86;81.56;100006.78;5115877;28;20052;-64
2023/01/12 12:10:56;;;;;;;4.38;3.60;;;;;;;8.76;81.11;100007.50;5106967;28;20167;-64
2023/01/12 12:13:31;;;;;;;1.50;1.40;;;;;;;8.69;81.39;100005.72;5095264;28;20054;-64
2023/01/12 12:16:19;;;;;;;5.43;2.30;;;;;;;8.61;81.03;99992.91;5102297;28;20117;-64
2023/01/12 12:19:09;;;;;;;4.60;2.97;;;;;;;8.82;81.53;99994.88;5094967;28;20050;-64
2023/01/12 12:21:47;;;;;;;;;;;;;;;9.02;81.73;100000.19;5095806;28;20044;-64
2023/01/12 12:24:38;;;;;;;1.92;1.80;;;;;;;9.13;80.86;99999.44;5095102;28;19919;-64
2023/01/12 12:27:17;;;;;;;1.50;1.33;;;;;;;9.67;80.79;99998.25;5096268;28;20074;-65
2023/01/12 12:30:03;;;;;;;1.55;1.45;;;;;;;10.33;80.08;99993.59;5094959;28;20131;-64
2023/01/12 12:32:43;;;;;;;1.80;1.65;;;;;;;10.99;78.33;99981.94;5094821;28;20117;-63
2023/01/12 12:35:40;;;;;;;2.00;1.58;;;;;;;11.43;76.60;99980.31;5098132;28;20043;-64
2023/01/12 12:38:25;;;;;;;2.75;2.47;;;;;;;11.77;74.51;99979.47;5115061;28;20043;-64
2023/01/12 12:46:54;;;;;;;2.25;1.95;;;;;;;12.25;70.28;99973.44;5111655;28;20067;-64
2023/01/12 12:49:31;;;;;;;2.95;2.38;;;;;;;12.13;69.73;99975.16;5109028;28;20051;-64